Terminal Aerodrome Forecast
Issued by NWS

Home | Current Version | Previous Version | Text Only | Print | Product List | Glossary On
Versions: 1 2 3 4 5 6 7 8 9 10 11 12 13 14
389
FTUS42 TJSJ 310543
TAFKPK
TAF
TKPK 310543Z 3106/0106 07010KT P6SM FEW018 SCT040
     FM311200 09012KT P6SM SCT018 SCT050
     FM312300 08010KT P6SM VCSH SCT018
      AMD NOT SKED TIL 311100=

USA.gov is the U.S. government's official web portal to all federal, state and local government web resources and services.